createdAt,value
2019-06-08T00:04:33.759Z,0.40
2019-06-08T00:09:37.310Z,0.37
2019-06-08T00:14:40.857Z,0.30
2019-06-08T00:19:44.304Z,0.40
2019-06-08T00:24:48.243Z,0.40
2019-06-08T00:29:51.714Z,0.33
2019-06-08T00:34:55.355Z,0.60
2019-06-08T00:39:58.810Z,1.07
2019-06-08T00:45:02.365Z,0.28
2019-06-08T00:50:07.502Z,0.30
2019-06-08T00:55:11.323Z,0.43
2019-06-08T01:00:15.528Z,0.33
2019-06-08T01:05:19.875Z,0.55
2019-06-08T01:10:25.552Z,0.30
2019-06-08T01:15:33.817Z,0.15
2019-06-08T01:20:34.608Z,0.50
2019-06-08T01:25:38.448Z,0.45
2019-06-08T01:30:41.932Z,0.30
2019-06-08T01:35:45.390Z,1.10
2019-06-08T01:40:48.858Z,0.17
2019-06-08T01:45:52.685Z,0.37
2019-06-08T01:50:56.144Z,0.30
2019-06-08T01:55:59.645Z,0.30
2019-06-08T02:01:03.700Z,0.20
2019-06-08T02:06:07.213Z,0.30
2019-06-08T02:11:10.633Z,0.75
2019-06-08T02:16:14.110Z,0.30
2019-06-08T02:21:17.752Z,0.47
2019-06-08T02:26:21.486Z,0.53
2019-06-08T02:31:24.972Z,0.30
2019-06-08T02:36:29.429Z,0.30
2019-06-08T02:41:35.187Z,0.40
2019-06-08T02:46:40.451Z,0.33
2019-06-08T02:51:44.469Z,0.23
2019-06-08T02:56:49.938Z,0.35
2019-06-08T03:01:55.858Z,0.53
2019-06-08T03:07:01.324Z,0.40
2019-06-08T03:12:05.577Z,0.30
2019-06-08T03:17:09.053Z,0.40
2019-06-08T03:22:12.534Z,0.50
2019-06-08T03:27:16.279Z,1.27
2019-06-08T03:32:19.764Z,0.30
2019-06-08T03:37:23.213Z,0.50
2019-06-08T03:42:26.685Z,0.40
2019-06-08T03:47:30.399Z,0.30
2019-06-08T03:52:35.426Z,0.40
2019-06-08T03:57:40.423Z,0.30
2019-06-08T04:02:46.637Z,0.40
2019-06-08T04:07:50.458Z,0.60
2019-06-08T04:12:54.213Z,0.30
2019-06-08T04:17:57.678Z,0.60
2019-06-08T04:23:01.296Z,0.20
2019-06-08T04:28:05.157Z,0.30
2019-06-08T04:33:08.617Z,0.30
2019-06-08T04:38:12.087Z,1.02
2019-06-08T04:43:15.551Z,0.40
2019-06-08T04:48:19.054Z,0.30
2019-06-08T04:53:22.505Z,0.62
2019-06-08T04:58:25.978Z,0.30
2019-06-08T05:03:29.455Z,0.20
2019-06-08T05:08:33.077Z,0.60
2019-06-08T05:13:36.534Z,0.65
2019-06-08T05:18:41.279Z,0.47
2019-06-08T05:23:45.584Z,0.40
2019-06-08T05:28:49.590Z,0.88
2019-06-08T05:33:53.170Z,0.50
2019-06-08T05:38:56.648Z,0.60
2019-06-08T05:44:00.110Z,0.40
2019-06-08T05:49:04.583Z,1.07
2019-06-08T05:54:08.111Z,0.50
2019-06-08T05:59:11.577Z,0.60
2019-06-08T06:04:15.154Z,1.17
2019-06-08T06:09:18.916Z,0.73
2019-06-08T06:14:22.376Z,0.50
2019-06-08T06:19:25.849Z,0.53
2019-06-08T06:24:29.341Z,0.60
2019-06-08T06:29:32.992Z,0.40
2019-06-08T06:34:36.535Z,0.50
2019-06-08T06:39:40.007Z,0.95
2019-06-08T06:44:45.722Z,1.67
2019-06-08T06:49:48.867Z,0.50
2019-06-08T06:54:53.311Z,0.95
2019-06-08T06:59:56.811Z,0.25
2019-06-08T07:05:00.589Z,0.90
2019-06-08T07:10:07.794Z,0.40
2019-06-08T07:15:11.604Z,0.60
2019-06-08T07:20:15.144Z,0.40
2019-06-08T07:25:18.599Z,0.55
2019-06-08T07:30:23.875Z,0.40
2019-06-08T07:35:27.315Z,0.50
2019-06-08T07:40:30.785Z,0.70
2019-06-08T07:45:34.255Z,0.90
2019-06-08T07:50:37.738Z,1.45
2019-06-08T07:55:41.203Z,1.10
2019-06-08T08:00:44.670Z,0.57
2019-06-08T08:05:48.246Z,0.88
2019-06-08T08:10:52.381Z,4.20
2019-06-08T08:15:58.753Z,1.12
2019-06-08T08:21:09.125Z,1.50
2019-06-08T08:26:06.412Z,3.52
2019-06-08T08:31:11.446Z,2.20
2019-06-08T08:36:15.424Z,0.80
2019-06-08T08:41:18.899Z,1.13
2019-06-08T08:46:22.387Z,1.43
2019-06-08T08:51:27.942Z,1.10
2019-06-08T08:56:31.263Z,1.12
2019-06-08T09:01:34.713Z,0.95
2019-06-08T09:06:38.375Z,2.25
2019-06-08T09:11:41.988Z,1.25
2019-06-08T09:16:47.983Z,2.93
2019-06-08T09:21:52.523Z,1.00
2019-06-08T09:27:00.073Z,1.55
2019-06-08T09:32:03.269Z,0.80
2019-06-08T09:37:08.056Z,1.30
2019-06-08T09:42:12.279Z,0.95
2019-06-08T09:47:17.948Z,0.60
2019-06-08T09:52:21.758Z,1.17
2019-06-08T09:57:25.390Z,0.72
2019-06-08T10:02:28.868Z,0.90
2019-06-08T10:07:32.460Z,0.82
2019-06-08T10:12:38.226Z,1.80
2019-06-08T10:17:41.238Z,0.95
2019-06-08T10:22:44.713Z,1.00
2019-06-08T10:27:48.169Z,1.98
2019-06-08T10:32:51.909Z,0.80
2019-06-08T10:37:57.775Z,0.90
2019-06-08T10:43:02.735Z,0.88
2019-06-08T10:48:06.396Z,0.50
2019-06-08T10:53:11.908Z,2.35
2019-06-08T10:58:15.210Z,0.70
2019-06-08T11:03:18.857Z,1.30
2019-06-08T11:08:22.387Z,1.00
2019-06-08T11:13:28.122Z,1.20
2019-06-08T11:18:31.149Z,1.50
2019-06-08T11:23:34.673Z,1.37
2019-06-08T11:28:38.400Z,0.80
2019-06-08T11:33:42.430Z,1.07
2019-06-08T11:38:47.801Z,0.80
2019-06-08T11:43:51.135Z,1.72
2019-06-08T11:48:54.608Z,1.20
2019-06-08T11:53:59.429Z,0.68
2019-06-08T11:59:03.645Z,1.75
2019-06-08T12:04:07.847Z,0.90
2019-06-08T12:09:12.726Z,1.77
2019-06-08T12:14:17.783Z,1.17
2019-06-08T12:19:21.681Z,0.70
2019-06-08T12:24:40.563Z,0.98
2019-06-08T12:29:30.363Z,1.42
2019-06-08T12:34:34.095Z,1.47
2019-06-08T12:39:38.706Z,1.33
2019-06-08T12:44:43.735Z,0.75
2019-06-08T12:49:48.417Z,0.98
2019-06-08T12:55:02.507Z,2.42
2019-06-08T12:59:59.797Z,1.30
2019-06-08T13:05:02.373Z,2.20
2019-06-08T13:10:07.176Z,0.80
2019-06-08T13:15:11.629Z,0.70
2019-06-08T13:20:22.092Z,0.97
2019-06-08T13:25:37.323Z,0.88
2019-06-08T13:30:32.417Z,2.75
2019-06-08T13:35:35.774Z,1.20
2019-06-08T13:40:40.294Z,1.10
2019-06-08T13:45:43.936Z,1.77
2019-06-08T13:50:49.947Z,1.67
2019-06-08T13:55:56.531Z,1.40
2019-06-08T14:00:59.747Z,1.02
2019-06-08T14:06:03.284Z,0.82
2019-06-08T14:11:08.282Z,1.30
2019-06-08T14:16:11.861Z,0.88
2019-06-08T14:21:15.348Z,2.60
2019-06-08T14:26:20.156Z,2.12
2019-06-08T14:31:25.604Z,1.77
2019-06-08T14:36:30.435Z,1.95
2019-06-08T14:41:34.260Z,1.77
2019-06-08T14:46:41.105Z,1.85
2019-06-08T14:51:52.638Z,1.22
2019-06-08T14:56:57.856Z,0.95
2019-06-08T15:02:01.370Z,0.93
2019-06-08T15:07:04.983Z,2.27
2019-06-08T15:12:09.409Z,2.05
2019-06-08T15:17:13.083Z,1.27
2019-06-08T15:22:18.800Z,0.88
2019-06-08T15:27:23.640Z,2.92
2019-06-08T15:32:28.276Z,1.70
2019-06-08T15:37:32.456Z,1.67
2019-06-08T15:42:36.033Z,0.68
2019-06-08T15:47:40.934Z,1.93
2019-06-08T15:52:44.481Z,0.70
2019-06-08T15:57:47.954Z,1.15
2019-06-08T16:02:51.585Z,0.70
2019-06-08T16:07:55.067Z,0.50
2019-06-08T16:12:58.771Z,1.47
2019-06-08T16:18:02.183Z,0.70
2019-06-08T16:23:05.753Z,1.10
2019-06-08T16:28:09.227Z,1.12
2019-06-08T16:33:13.032Z,2.50
2019-06-08T16:38:16.974Z,0.93
2019-06-08T16:43:20.485Z,1.37
2019-06-08T16:48:24.030Z,1.30
2019-06-08T16:53:27.509Z,0.98
2019-06-08T16:58:32.123Z,1.87
2019-06-08T17:03:36.885Z,1.20
2019-06-08T17:08:42.074Z,1.05
2019-06-08T17:13:46.011Z,1.72
2019-06-08T17:18:49.489Z,1.52
2019-06-08T17:23:52.986Z,1.10
2019-06-08T17:28:56.476Z,0.60
2019-06-08T17:33:59.973Z,14.53
2019-06-08T17:39:04.679Z,25.60
2019-06-08T17:44:08.484Z,22.70
2019-06-08T17:49:11.976Z,25.08
2019-06-08T17:54:15.448Z,18.95
2019-06-08T17:59:18.990Z,26.65
2019-06-08T18:04:22.477Z,25.27
2019-06-08T18:09:28.006Z,26.07
2019-06-08T18:14:31.157Z,19.82
2019-06-08T18:19:34.638Z,18.55
2019-06-08T18:24:41.929Z,16.90
2019-06-08T18:29:46.136Z,24.47
2019-06-08T18:34:50.049Z,17.23
2019-06-08T18:39:53.720Z,21.70
2019-06-08T18:44:58.251Z,18.85
2019-06-08T18:50:01.962Z,22.25
2019-06-08T18:55:09.252Z,15.90
2019-06-08T19:00:13.160Z,11.13
2019-06-08T19:05:20.789Z,11.00
2019-06-08T19:10:33.711Z,9.03
2019-06-08T19:15:42.274Z,7.27
2019-06-08T19:20:47.724Z,3.83
2019-06-08T19:25:50.487Z,2.62
2019-06-08T19:30:54.033Z,3.05
2019-06-08T19:35:58.362Z,3.62
2019-06-08T19:41:02.279Z,2.90
2019-06-08T19:46:07.219Z,2.40
2019-06-08T19:51:11.393Z,1.87
2019-06-08T19:56:17.197Z,1.50
2019-06-08T20:01:20.049Z,2.33
2019-06-08T20:06:23.788Z,1.60
2019-06-08T20:11:29.366Z,1.62
2019-06-08T20:16:33.169Z,1.10
2019-06-08T20:21:38.090Z,1.75
2019-06-08T20:26:42.247Z,1.35
2019-06-08T20:31:48.116Z,1.30
2019-06-08T20:36:51.054Z,2.33
2019-06-08T20:41:54.688Z,3.02
2019-06-08T20:46:58.208Z,1.45
2019-06-08T20:52:02.159Z,1.20
2019-06-08T20:57:07.623Z,1.10
2019-06-08T21:02:10.963Z,1.10
2019-06-08T21:07:14.703Z,0.90
2019-06-08T21:12:18.211Z,0.80
2019-06-08T21:17:22.085Z,1.27
2019-06-08T21:22:27.775Z,1.10
2019-06-08T21:27:30.933Z,0.80
2019-06-08T21:32:34.407Z,0.90
2019-06-08T21:37:38.033Z,1.00
2019-06-08T21:42:42.281Z,1.30
2019-06-08T21:47:48.563Z,0.80
2019-06-08T21:52:51.976Z,0.90
2019-06-08T21:58:01.501Z,2.98
2019-06-08T22:03:03.026Z,1.17
2019-06-08T22:08:07.959Z,0.90
2019-06-08T22:13:12.505Z,0.80
2019-06-08T22:18:18.432Z,0.95
2019-06-08T22:23:21.733Z,0.70
2019-06-08T22:28:27.029Z,0.80
2019-06-08T22:33:30.385Z,0.60
2019-06-08T22:38:34.006Z,1.00
2019-06-08T22:43:37.641Z,0.68
2019-06-08T22:48:42.610Z,0.88
2019-06-08T22:53:47.830Z,0.80
2019-06-08T22:58:51.412Z,0.60
2019-06-08T23:03:56.335Z,0.70
2019-06-08T23:09:02.502Z,1.07
2019-06-08T23:14:12.346Z,0.57
2019-06-08T23:19:10.866Z,0.70
2019-06-08T23:24:14.365Z,0.68
2019-06-08T23:29:17.986Z,0.80
2019-06-08T23:34:23.339Z,0.50
2019-06-08T23:39:28.413Z,0.60
2019-06-08T23:44:32.299Z,0.50
2019-06-08T23:49:37.882Z,0.80
2019-06-08T23:54:41.022Z,0.60
2019-06-08T23:59:44.503Z,0.57
